Time;durP1;ratioP1;P1;durP2;ratioP2;P2;SDS_P1;SDS_P2;PMS_P1;PMS_P2;Temp;Humidity;BMP_temperature;BMP_pressure;BME280_temperature;BME280_humidity;BME280_pressure;Samples;Min_cycle;Max_cycle;Signal;HPM_P1;HPM_P2
2022/03/31 00:00:19;;;;;;;;;;;;;;;1.46;70.00;99410.52;89560;1277;81389;-71
2022/03/31 00:02:44;;;;;;;;;;;;;;;1.38;70.15;99408.77;89569;1277;98289;-74
2022/03/31 00:04:52;;;;;;;;;;;;;;;1.34;69.79;99404.55;89545;1277;87910;-73
2022/03/31 00:06:59;;;;;;;;;;;;;;;1.35;69.77;99410.23;89518;1277;93143;-73
2022/03/31 00:09:09;;;;;;;;;;;;;;;1.31;69.89;99411.58;89537;1277;77919;-71
2022/03/31 00:11:19;;;;;;;;;;;;;;;1.21;70.22;99413.83;89558;1277;82585;-71
2022/03/31 00:13:30;;;;;;;;;;;;;;;1.12;70.19;99414.24;89536;1277;96492;-73
2022/03/31 00:15:41;;;;;;;;;;;;;;;1.10;70.16;99415.13;89532;1277;89062;-72
2022/03/31 00:17:48;;;;;;;;;;;;;;;1.06;70.27;99410.77;89546;1277;95762;-72
2022/03/31 00:19:59;;;;;;;;;;;;;;;0.99;70.48;99412.14;89534;1277;80767;-72
2022/03/31 00:22:09;;;;;;;;;;;;;;;0.94;70.82;99409.98;89534;1277;81292;-72
2022/03/31 00:24:19;;;;;;;;;;;;;;;0.86;70.95;99405.14;89533;1277;98620;-72
2022/03/31 00:26:26;;;;;;;;;;;;;;;0.77;71.55;99403.26;89550;1277;87944;-72
2022/03/31 00:28:38;;;;;;;;;;;;;;;0.72;71.11;99399.65;89481;1277;95781;-71
2022/03/31 00:30:48;;;;;;;;;;;;;;;0.71;71.12;99399.75;89531;1277;78998;-71
2022/03/31 00:32:59;;;;;;;;;;;;;;;0.69;71.33;99394.85;89555;1277;82954;-71
2022/03/31 00:35:12;;;;;;;;;;;;;;;0.66;71.36;99393.19;89502;1277;97207;-71
2022/03/31 00:37:22;;;;;;;;;;;;;;;0.62;71.14;99396.70;89530;1277;87405;-72
2022/03/31 00:39:31;;;;;;;;;;;;;;;0.62;71.30;99395.31;89539;1277;95715;-72
2022/03/31 00:41:41;;;;;;;;;;;;;;;0.57;71.31;99397.86;89516;1277;77180;-72
2022/03/31 00:43:48;;;;;;;;;;;;;;;0.57;71.44;99393.30;89520;1277;82183;-71
2022/03/31 00:45:56;;;;;;;;;;;;;;;0.61;71.33;99395.36;89417;1279;97980;-70
2022/03/31 00:48:04;;;;;;;;;;;;;;;0.60;71.63;99397.44;89521;1277;87270;-70
2022/03/31 00:50:14;;;;;;;;;;;;;;;0.58;71.64;99395.84;89493;1277;95628;-70
2022/03/31 00:52:21;;;;;;;;;;;;;;;0.56;71.61;99396.97;89527;1277;78115;-73
2022/03/31 00:54:32;;;;;;;;;;;;;;;0.54;71.98;99397.48;89544;1277;81470;-74
2022/03/31 00:56:43;;;;;;;;;;;;;;;0.51;71.81;99391.02;89512;1277;98148;-74
2022/03/31 00:58:50;;;;;;;;;;;;;;;0.50;71.57;99390.80;89523;1277;88136;-71
2022/03/31 01:01:00;;;;;;;;;;;;;;;0.48;72.22;99393.13;89527;1277;95223;-71
2022/03/31 01:03:07;;;;;;;;;;;;;;;0.44;72.48;99388.77;89540;1277;80156;-74
2022/03/31 01:05:14;;;;;;;;;;;;;;;0.45;72.10;99383.14;89513;1277;83363;-74
2022/03/31 01:07:21;;;;;;;;;;;;;;;0.44;72.62;99386.27;89540;1277;98573;-71
2022/03/31 01:09:29;;;;;;;;;;;;;;;0.45;72.39;99384.44;89519;1277;86973;-71
2022/03/31 01:11:36;;;;;;;;;;;;;;;0.43;72.59;99381.94;89516;1277;95666;-70
2022/03/31 01:13:43;;;;;;;;;;;;;;;0.42;72.40;99377.13;89491;1277;78246;-70
2022/03/31 01:15:50;;;;;;;;;;;;;;;0.39;72.93;99378.07;89553;1277;82857;-70
2022/03/31 01:17:57;;;;;;;;;;;;;;;0.38;72.86;99380.34;89508;1277;97044;-71
2022/03/31 01:20:06;;;;;;;;;;;;;;;0.35;72.70;99376.89;89507;1277;87097;-70
2022/03/31 01:22:13;;;;;;;;;;;;;;;0.35;72.69;99377.26;89515;1277;95449;-74
2022/03/31 01:24:21;;;;;;;;;;;;;;;0.39;72.68;99374.24;89492;1277;78681;-74
2022/03/31 01:26:28;;;;;;;;;;;;;;;0.45;73.18;99374.71;89504;1277;80139;-74
2022/03/31 01:28:36;;;;;;;;;;;;;;;0.47;72.85;99369.34;89499;1277;99670;-75
2022/03/31 01:30:46;;;;;;;;;;;;;;;0.50;72.91;99366.89;89524;1277;88298;-74
2022/03/31 01:32:57;;;;;;;;;;;;;;;0.56;72.61;99367.71;89501;1276;94094;-74
2022/03/31 01:35:05;;;;;;;;;;;;;;;0.65;72.64;99369.30;89478;1277;81263;-73
2022/03/31 01:37:13;;;;;;;;;;;;;;;0.71;72.40;99371.02;89515;1277;81838;-72
2022/03/31 01:39:21;;;;;;;;;;;;;;;0.75;72.49;99371.38;89497;1277;98400;-71
2022/03/31 01:41:28;;;;;;;;;;;;;;;0.82;72.02;99374.17;89497;1277;88285;-71
2022/03/31 01:43:38;;;;;;;;;;;;;;;0.90;71.93;99373.24;89507;1277;95975;-73
2022/03/31 01:45:45;;;;;;;;;;;;;;;0.91;72.16;99374.48;89505;1277;77151;-73
2022/03/31 01:47:52;;;;;;;;;;;;;;;0.89;72.03;99372.96;89480;1277;81330;-73
2022/03/31 01:50:00;;;;;;;;;;;;;;;0.93;71.69;99370.92;89519;1276;99122;-74
2022/03/31 01:52:08;;;;;;;;;;;;;;;0.87;72.10;99370.83;89576;1276;88494;-72
2022/03/31 01:54:16;;;;;;;;;;;;;;;0.85;71.89;99368.40;89549;1276;95557;-71
2022/03/31 01:56:23;;;;;;;;;;;;;;;0.84;71.79;99364.98;89550;1276;79352;-72
2022/03/31 01:58:32;;;;;;;;;;;;;;;0.81;71.88;99364.02;89567;1276;82847;-71
2022/03/31 02:00:39;;;;;;;;;;;;;;;0.77;71.74;99365.79;89578;1276;98862;-71
2022/03/31 02:02:49;;;;;;;;;;;;;;;0.78;71.48;99369.84;89602;1276;89103;-73
2022/03/31 02:04:57;;;;;;;;;;;;;;;0.75;71.79;99365.87;89578;1276;94987;-73
2022/03/31 02:07:10;;;;;;;;;;;;;;;0.70;71.93;99372.70;89579;1276;78777;-72
2022/03/31 02:09:20;;;;;;;;;;;;;;;0.68;71.75;99373.64;89610;1276;80309;-74
2022/03/31 02:11:32;;;;;;;;;;;;;;;0.64;71.73;99374.79;89580;1276;98656;-73
2022/03/31 02:13:43;;;;;;;;;;;;;;;0.54;71.98;99371.26;89596;1276;88981;-71
2022/03/31 02:15:51;;;;;;;;;;;;;;;0.52;71.84;99371.98;89556;1276;93947;-71
2022/03/31 02:17:59;;;;;;;;;;;;;;;0.48;71.77;99371.52;89569;1276;80076;-72
2022/03/31 02:20:07;;;;;;;;;;;;;;;0.40;72.09;99372.46;89588;1276;79505;-71
2022/03/31 02:22:14;;;;;;;;;;;;;;;0.37;72.05;99376.15;89564;1276;97485;-72
2022/03/31 02:24:21;;;;;;;;;;;;;;;0.30;72.03;99377.36;89576;1276;87969;-71
2022/03/31 02:26:28;;;;;;;;;;;;;;;0.24;72.13;99373.00;89560;1276;95638;-71
2022/03/31 02:28:35;;;;;;;;;;;;;;;0.23;72.48;99373.36;89593;1276;77830;-71
2022/03/31 02:30:45;;;;;;;;;;;;;;;0.17;72.46;99372.11;89596;1276;82541;-70
2022/03/31 02:32:52;;;;;;;;;;;;;;;0.12;73.20;99370.20;89578;1276;97609;-71
2022/03/31 02:34:59;;;;;;;;;;;;;;;0.11;72.72;99366.73;89571;1276;87374;-71
2022/03/31 02:37:09;;;;;;;;;;;;;;;0.10;73.10;99366.32;89583;1276;95288;-72
2022/03/31 02:39:16;;;;;;;;;;;;;;;0.10;72.70;99368.05;89554;1276;78087;-71
2022/03/31 02:41:23;;;;;;;;;;;;;;;0.11;72.93;99367.91;89575;1276;80966;-71
2022/03/31 02:43:33;;;;;;;;;;;;;;;0.12;73.25;99366.23;89576;1276;99338;-71
2022/03/31 02:45:40;;;;;;;;;;;;;;;0.13;72.77;99368.48;89581;1276;89076;-72
2022/03/31 02:47:50;;;;;;;;;;;;;;;0.16;72.82;99368.30;89582;1276;95589;-71
2022/03/31 02:50:00;;;;;;;;;;;;;;;0.16;73.04;99366.20;89586;1276;77528;-71
2022/03/31 02:52:10;;;;;;;;;;;;;;;0.13;72.95;99370.08;89576;1276;80039;-73
2022/03/31 02:56:45;;;;;;;;;;;;;;;0.13;73.06;99367.72;89594;1276;89230;-74
2022/03/31 02:58:55;;;;;;;;;;;;;;;0.12;73.05;99373.50;89572;1276;93739;-73
2022/03/31 03:01:02;;;;;;;;;;;;;;;0.13;72.95;99368.14;89575;1276;76957;-73
2022/03/31 03:03:11;;;;;;;;;;;;;;;0.14;73.07;99370.36;89587;1276;79613;-72
2022/03/31 03:05:18;;;;;;;;;;;;;;;0.14;72.78;99370.67;89596;1276;97880;-72
2022/03/31 03:07:26;;;;;;;;;;;;;;;0.13;72.89;99369.65;89590;1276;88819;-72
2022/03/31 03:09:33;;;;;;;;;;;;;;;0.16;73.10;99376.54;89553;1276;93397;-70
2022/03/31 03:11:40;;;;;;;;;;;;;;;0.14;73.22;99374.23;89573;1276;77089;-70
2022/03/31 03:13:48;;;;;;;;;;;;;;;0.09;73.70;99371.89;89580;1276;80817;-73
2022/03/31 03:15:58;;;;;;;;;;;;;;;0.08;73.61;99369.65;89576;1276;98792;-71
2022/03/31 03:18:08;;;;;;;;;;;;;;;0.08;73.19;99369.84;89568;1278;86711;-72
2022/03/31 03:20:17;;;;;;;;;;;;;;;0.09;73.38;99370.09;89578;1277;95262;-70
2022/03/31 03:22:27;;;;;;;;;;;;;;;0.09;73.53;99371.73;89558;1277;78947;-73
2022/03/31 03:24:34;;;;;;;;;;;;;;;0.07;73.26;99370.60;89581;1277;79549;-72
2022/03/31 03:26:41;;;;;;;;;;;;;;;0.06;73.21;99362.46;89591;1277;97722;-73
2022/03/31 03:28:51;;;;;;;;;;;;;;;0.07;73.41;99367.34;89345;1276;287320;-70
2022/03/31 03:30:58;;;;;;;;;;;;;;;0.09;73.12;99368.89;89548;1277;95420;-72
2022/03/31 03:33:06;;;;;;;;;;;;;;;0.10;73.58;99371.03;89575;1276;79172;-72
2022/03/31 03:35:15;;;;;;;;;;;;;;;0.12;73.18;99369.39;89573;1276;82988;-72
2022/03/31 03:37:23;;;;;;;;;;;;;;;0.15;73.37;99365.24;89580;1276;97700;-72
2022/03/31 03:39:34;;;;;;;;;;;;;;;0.18;73.51;99368.00;89565;1276;88108;-72
2022/03/31 03:41:44;;;;;;;;;;;;;;;0.23;73.26;99362.12;89552;1276;95266;-72
2022/03/31 03:43:55;;;;;;;;;;;;;;;0.34;73.11;99365.30;89562;1276;81187;-73
2022/03/31 03:46:05;;;;;;;;;;;;;;;0.42;72.99;99365.44;89568;1276;82237;-73
2022/03/31 03:48:15;;;;;;;;;;;;;;;0.47;73.10;99364.55;89581;1276;96669;-73
2022/03/31 03:50:25;;;;;;;;;;;;;;;0.54;72.71;99364.94;89600;1276;89095;-73
2022/03/31 03:52:35;;;;;;;;;;;;;;;0.61;72.60;99366.70;89552;1276;96101;-73
2022/03/31 03:54:42;;;;;;;;;;;;;;;0.56;72.59;99370.34;89543;1276;81499;-73
2022/03/31 03:56:52;;;;;;;;;;;;;;;0.63;72.37;99372.05;89596;1276;83006;-70
2022/03/31 03:58:59;;;;;;;;;;;;;;;0.70;72.31;99373.12;89569;1276;96712;-71
2022/03/31 04:01:10;;;;;;;;;;;;;;;0.73;72.21;99375.32;89600;1276;88131;-70
2022/03/31 04:03:17;;;;;;;;;;;;;;;0.71;71.89;99378.48;89601;1276;94553;-69
2022/03/31 04:05:27;;;;;;;;;;;;;;;0.64;71.79;99375.95;89589;1276;77895;-70
2022/03/31 04:07:38;;;;;;;;;;;;;;;0.58;71.80;99381.88;89592;1276;79901;-71
2022/03/31 04:09:45;;;;;;;;;;;;;;;0.52;71.77;99383.38;89596;1276;98725;-69
2022/03/31 04:11:52;;;;;;;;;;;;;;;0.38;71.98;99383.50;89619;1276;89572;-71
2022/03/31 04:14:03;;;;;;;;;;;;;;;0.33;71.74;99384.61;89584;1276;94237;-70
2022/03/31 04:16:10;;;;;;;;;;;;;;;0.26;71.62;99384.70;89605;1276;79219;-70
2022/03/31 04:18:20;;;;;;;;;;;;;;;0.23;71.72;99386.44;89620;1276;80715;-70
2022/03/31 04:20:27;;;;;;;;;;;;;;;0.17;71.49;99383.45;89610;1276;98598;-72
2022/03/31 04:22:37;;;;;;;;;;;;;;;0.14;71.57;99386.04;89591;1276;86800;-69
2022/03/31 04:24:44;;;;;;;;;;;;;;;0.10;71.75;99388.95;89612;1276;95569;-70
2022/03/31 04:26:54;;;;;;;;;;;;;;;0.09;71.85;99387.76;89605;1276;77388;-69
2022/03/31 04:29:01;;;;;;;;;;;;;;;0.10;71.64;99392.70;89591;1276;82708;-70
2022/03/31 04:31:09;;;;;;;;;;;;;;;0.06;71.57;99394.61;89607;1276;97524;-71
2022/03/31 04:33:16;;;;;;;;;;;;;;;0.06;71.66;99396.23;89639;1276;87627;-71
2022/03/31 04:35:26;;;;;;;;;;;;;;;0.05;71.69;99398.94;89612;1276;93970;-71
2022/03/31 04:37:33;;;;;;;;;;;;;;;0.01;71.74;99396.18;89613;1276;78745;-71
2022/03/31 04:39:43;;;;;;;;;;;;;;;0.04;71.64;99399.95;89631;1276;82321;-71
2022/03/31 04:41:51;;;;;;;;;;;;;;;0.05;71.78;99400.23;89613;1276;97364;-70
2022/03/31 04:43:58;;;;;;;;;;;;;;;0.02;71.78;99403.56;89582;1276;87912;-70
2022/03/31 04:46:05;;;;;;;;;;;;;;;-0.00;72.04;99401.98;89611;1276;95060;-70
2022/03/31 04:48:12;;;;;;;;;;;;;;;0.01;71.82;99403.22;89593;1276;77572;-70
2022/03/31 04:50:23;;;;;;;;;;;;;;;0.06;71.68;99396.63;89621;1276;80351;-71
2022/03/31 04:52:30;;;;;;;;;;;;;;;0.07;71.58;99397.35;89606;1276;99245;-70
2022/03/31 04:54:43;;;;;;;;;;;;;;;0.07;72.08;99400.39;89609;1276;87609;-71
2022/03/31 04:56:50;;;;;;;;;;;;;;;0.07;72.07;99400.59;89614;1276;94115;-70
2022/03/31 04:58:57;;;;;;;;;;;;;;;0.12;71.85;99402.74;89601;1276;77206;-71
2022/03/31 05:01:04;;;;;;;;;;;;;;;0.12;72.18;99403.80;89629;1276;79987;-71
2022/03/31 05:03:11;;;;;;;;;;;;;;;0.12;71.93;99402.88;89600;1276;99791;-69
2022/03/31 05:05:19;;;;;;;;;;;;;;;0.15;71.69;99400.16;89601;1276;89305;-71
2022/03/31 05:07:26;;;;;;;;;;;;;;;0.15;72.05;99403.34;89607;1276;96300;-71
2022/03/31 05:09:33;;;;;;;;;;;;;;;0.17;71.83;99403.27;89605;1276;77584;-71
2022/03/31 05:11:40;;;;;;;;;;;;;;;0.21;71.80;99405.71;89617;1276;82229;-71
2022/03/31 05:13:47;;;;;;;;;;;;;;;0.26;71.78;99406.33;89604;1276;97574;-71
2022/03/31 05:15:54;;;;;;;;;;;;;;;0.31;71.73;99410.27;89608;1276;89131;-71
2022/03/31 05:18:01;;;;;;;;;;;;;;;0.38;71.67;99413.48;89597;1276;95880;-71
2022/03/31 05:20:11;;;;;;;;;;;;;;;0.46;71.73;99418.85;89613;1276;78575;-70
2022/03/31 05:22:18;;;;;;;;;;;;;;;0.47;71.52;99425.98;89623;1276;81211;-71
2022/03/31 05:24:25;;;;;;;;;;;;;;;0.51;71.49;99426.65;89601;1276;98069;-72
2022/03/31 05:26:32;;;;;;;;;;;;;;;0.54;71.32;99427.39;89571;1276;89062;-69
2022/03/31 05:28:39;;;;;;;;;;;;;;;0.52;71.34;99429.05;89583;1276;93781;-71
2022/03/31 05:30:46;;;;;;;;;;;;;;;0.52;71.44;99427.45;89592;1276;79441;-70
2022/03/31 05:32:53;;;;;;;;;;;;;;;0.52;71.31;99437.58;89627;1276;82341;-70
2022/03/31 05:35:01;;;;;;;;;;;;;;;0.49;71.31;99430.55;89601;1276;99275;-71
2022/03/31 05:37:08;;;;;;;;;;;;;;;0.57;71.19;99430.84;89633;1276;85698;-70
2022/03/31 05:39:18;;;;;;;;;;;;;;;0.65;71.01;99429.30;89570;1276;95029;-69
2022/03/31 05:41:28;;;;;;;;;;;;;;;0.73;71.11;99431.83;89582;1276;77218;-72
2022/03/31 05:43:38;;;;;;;;;;;;;;;0.79;71.09;99428.49;89636;1276;79063;-71
2022/03/31 05:45:45;;;;;;;;;;;;;;;0.87;70.78;99434.29;89614;1276;97008;-71
2022/03/31 05:47:53;;;;;;;;;;;;;;;0.95;70.85;99438.79;89606;1276;89164;-73
2022/03/31 05:50:01;;;;;;;;;;;;;;;1.05;70.59;99440.58;89602;1277;94315;-71
2022/03/31 05:52:08;;;;;;;;;;;;;;;1.13;70.76;99445.79;89607;1277;77151;-71
2022/03/31 05:54:15;;;;;;;;;;;;;;;1.28;70.63;99449.86;89602;1277;81797;-71
2022/03/31 05:56:25;;;;;;;;;;;;;;;1.35;70.34;99449.11;89612;1277;97053;-71
2022/03/31 05:58:32;;;;;;;;;;;;;;;1.44;70.17;99451.55;89624;1277;89290;-72
2022/03/31 06:00:39;;;;;;;;;;;;;;;1.57;69.97;99446.19;89603;1277;94798;-72
2022/03/31 06:02:47;;;;;;;;;;;;;;;1.75;70.01;99449.75;89608;1277;78000;-71
2022/03/31 06:04:57;;;;;;;;;;;;;;;1.91;69.56;99456.38;89634;1277;82463;-75
2022/03/31 06:07:11;;;;;;;;;;;;;;;1.82;69.22;99457.37;89630;1277;98251;-70
2022/03/31 06:09:21;;;;;;;;;;;;;;;1.85;69.22;99457.83;89585;1277;87628;-70
2022/03/31 06:11:28;;;;;;;;;;;;;;;1.88;69.16;99457.38;89600;1277;95831;-75
2022/03/31 06:13:35;;;;;;;;;;;;;;;1.89;69.04;99458.45;89610;1277;77886;-73
2022/03/31 06:15:43;;;;;;;;;;;;;;;1.87;68.96;99460.06;89605;1277;83013;-70
2022/03/31 06:17:50;;;;;;;;;;;;;;;1.83;68.83;99458.18;89596;1277;98865;-74
2022/03/31 06:20:00;;;;;;;;;;;;;;;1.83;68.74;99459.44;89625;1276;87060;-68
2022/03/31 06:22:07;;;;;;;;;;;;;;;1.89;68.76;99458.48;89592;1277;94305;-70
2022/03/31 06:24:14;;;;;;;;;;;;;;;1.94;68.64;99463.85;89595;1277;79049;-67
2022/03/31 06:26:22;;;;;;;;;;;;;;;2.09;68.65;99462.76;89607;1277;82189;-65
2022/03/31 06:28:31;;;;;;;;;;;;;;;2.27;68.73;99466.53;89619;1277;96265;-72
2022/03/31 06:30:38;;;;;;;;;;;;;;;2.35;68.25;99461.80;89605;1277;88457;-70
2022/03/31 06:32:46;;;;;;;;;;;;;;;2.54;68.32;99465.63;89608;1277;93569;-71
2022/03/31 06:34:56;;;;;;;;;;;;;;;2.88;68.14;99470.30;89617;1277;80067;-71
2022/03/31 06:37:06;;;;;;;;;;;;;;;2.96;67.58;99470.60;89617;1277;82719;-71
2022/03/31 06:39:17;;;;;;;;;;;;;;;2.98;67.23;99477.76;89535;1278;99920;-70
2022/03/31 06:41:27;;;;;;;;;;;;;;;2.93;66.94;99479.92;89615;1277;87889;-68
2022/03/31 06:43:34;;;;;;;;;;;;;;;2.78;66.74;99483.48;89580;1276;94618;-70
2022/03/31 06:45:44;;;;;;;;;;;;;;;2.54;66.60;99477.27;89596;1277;80337;-69
2022/03/31 06:47:51;;;;;;;;;;;;;;;2.49;66.87;99478.08;89621;1277;80369;-70
2022/03/31 06:49:59;;;;;;;;;;;;;;;2.55;67.08;99473.55;89590;1277;99486;-70
2022/03/31 06:52:07;;;;;;;;;;;;;;;2.74;67.04;99473.50;89611;1277;89491;-70
2022/03/31 06:54:18;;;;;;;;;;;;;;;2.96;67.00;99473.63;89583;1277;94747;-71
2022/03/31 06:56:29;;;;;;;;;;;;;;;3.15;66.77;99477.23;89619;1277;78443;-71
2022/03/31 06:58:36;;;;;;;;;;;;;;;3.34;66.38;99474.65;89623;1277;83368;-71
2022/03/31 07:00:43;;;;;;;;;;;;;;;3.69;66.08;99469.83;89613;1277;99241;-74
2022/03/31 07:02:50;;;;;;;;;;;;;;;4.00;65.29;99465.27;89624;1277;86977;-70
2022/03/31 07:05:01;;;;;;;;;;;;;;;4.18;65.10;99457.21;89602;1277;95250;-70
2022/03/31 07:07:08;;;;;;;;;;;;;;;4.49;64.92;99462.85;89613;1277;77089;-70
2022/03/31 07:09:15;;;;;;;;;;;;;;;4.65;64.41;99468.73;89615;1277;81514;-71
2022/03/31 07:11:23;;;;;;;;;;;;;;;4.53;63.28;99470.20;89618;1277;98233;-71
2022/03/31 07:13:29;;;;;;;;;;;;;;;4.32;63.44;99472.04;89607;1277;88863;-70
2022/03/31 07:15:37;;;;;;;;;;;;;;;4.35;63.44;99471.40;89593;1277;93469;-69
2022/03/31 07:17:44;;;;;;;;;;;;;;;4.34;63.28;99468.39;89613;1276;78554;-71
2022/03/31 07:19:51;;;;;;;;;;;;;;;4.29;62.71;99472.39;89617;1277;81403;-70
2022/03/31 07:21:58;;;;;;;;;;;;;;;3.94;62.84;99471.84;89617;1277;99394;-70
2022/03/31 07:24:09;;;;;;;;;;;;;;;3.82;62.95;99471.63;89623;1277;88812;-73
2022/03/31 07:26:16;;;;;;;;;;;;;;;3.77;63.23;99469.15;89602;1277;95506;-68
2022/03/31 07:28:24;;;;;;;;;;;;;;;3.93;63.25;99466.46;89482;1277;80782;-69
2022/03/31 07:30:32;;;;;;;;;;;;;;;3.96;63.23;99466.33;89650;1276;82178;-71
2022/03/31 07:32:48;;;;;;;;;;;;;;;4.02;63.23;99466.91;89660;1276;98959;-71
2022/03/31 07:34:58;;;;;;;;;;;;;;;4.09;63.00;99465.56;89658;1276;88302;-69
2022/03/31 07:37:06;;;;;;;;;;;;;;;4.15;63.06;99459.16;89645;1276;95818;-70
2022/03/31 07:39:13;;;;;;;;;;;;;;;4.19;62.71;99462.00;89664;1277;77745;-70
2022/03/31 07:41:21;;;;;;;;;;;;;;;4.17;62.76;99462.70;89674;1276;82144;-72
2022/03/31 07:43:28;;;;;;;;;;;;;;;4.22;62.83;99462.69;89583;1277;98235;-74
2022/03/31 07:45:36;;;;;;;;;;;;;;;4.31;62.71;99458.78;89649;1276;88857;-66
2022/03/31 07:47:45;;;;;;;;;;;;;;;4.37;62.34;99462.23;89631;1276;94455;-75
2022/03/31 07:49:55;;;;;;;;;;;;;;;4.43;62.19;99463.72;89658;1277;76111;-70
2022/03/31 07:52:03;;;;;;;;;;;;;;;4.45;62.07;99465.58;89666;1277;80253;-70
2022/03/31 07:54:10;;;;;;;;;;;;;;;4.30;61.60;99464.60;89592;1277;98693;-71
2022/03/31 07:56:20;;;;;;;;;;;;;;;4.34;61.89;99465.29;89664;1277;89901;-71
2022/03/31 07:58:27;;;;;;;;;;;;;;;4.44;61.78;99465.34;89601;1277;95675;-70
2022/03/31 08:00:35;;;;;;;;;;;;;;;4.52;61.24;99471.70;89632;1276;78792;-71
2022/03/31 08:02:44;;;;;;;;;;;;;;;4.57;61.11;99471.45;89657;1276;81068;-72
2022/03/31 08:04:54;;;;;;;;;;;;;;;4.58;61.21;99472.11;89641;1277;98697;-71
2022/03/31 08:07:02;;;;;;;;;;;;;;;4.76;61.00;99477.14;89648;1277;88408;-71
2022/03/31 08:09:10;;;;;;;;;;;;;;;4.77;60.67;99475.30;89589;1277;94952;-71
2022/03/31 08:11:17;;;;;;;;;;;;;;;4.82;60.56;99478.42;89583;1277;78556;-71
2022/03/31 08:13:28;;;;;;;;;;;;;;;4.83;60.07;99483.67;89670;1276;83215;-70
2022/03/31 08:15:36;;;;;;;;;;;;;;;4.73;59.95;99482.34;89658;1277;97471;-72
2022/03/31 08:17:47;;;;;;;;;;;;;;;4.76;59.58;99480.92;89628;1277;89638;-71
2022/03/31 08:19:57;;;;;;;;;;;;;;;4.75;59.68;99484.45;89639;1276;92709;-70
2022/03/31 08:22:07;;;;;;;;;;;;;;;4.59;59.14;99489.79;89634;1277;78121;-70
2022/03/31 08:24:15;;;;;;;;;;;;;;;4.60;59.29;99487.02;89671;1277;80177;-70
2022/03/31 08:26:26;;;;;;;;;;;;;;;4.69;59.37;99490.62;89630;1276;97115;-70
2022/03/31 08:28:37;;;;;;;;;;;;;;;4.79;59.47;99496.42;89654;1277;86949;-69
2022/03/31 08:30:44;;;;;;;;;;;;;;;4.78;59.25;99490.11;89638;1276;94502;-69
2022/03/31 08:32:54;;;;;;;;;;;;;;;4.89;59.30;99490.80;89646;1276;78032;-71
2022/03/31 08:35:02;;;;;;;;;;;;;;;4.92;58.86;99494.45;89646;1277;82900;-71
2022/03/31 08:37:09;;;;;;;;;;;;;;;4.89;58.29;99493.70;89648;1276;97874;-70
2022/03/31 08:39:16;;;;;;;;;;;;;;;4.85;58.11;99499.02;89651;1276;88438;-71
2022/03/31 08:41:24;;;;;;;;;;;;;;;4.79;57.83;99502.34;89655;1276;93240;-71
2022/03/31 08:43:31;;;;;;;;;;;;;;;4.91;58.19;99499.39;89658;1276;78862;-70
2022/03/31 08:45:41;;;;;;;;;;;;;;;4.96;57.98;99505.84;89680;1276;81162;-70
2022/03/31 08:47:53;;;;;;;;;;;;;;;4.98;57.63;99503.56;89651;1277;97385;-71
2022/03/31 08:50:04;;;;;;;;;;;;;;;4.96;57.66;99502.83;89610;1276;88456;-70
2022/03/31 08:52:13;;;;;;;;;;;;;;;4.98;57.80;99495.90;89658;1277;95597;-71
2022/03/31 08:54:23;;;;;;;;;;;;;;;5.10;57.57;99491.04;89654;1277;79474;-73
2022/03/31 08:56:33;;;;;;;;;;;;;;;5.20;57.08;99484.69;89681;1277;81809;-72
2022/03/31 08:58:43;;;;;;;;;;;;;;;5.44;57.23;99485.45;89659;1277;96987;-72
2022/03/31 09:00:53;;;;;;;;;;;;;;;5.52;56.35;99482.59;89669;1277;88500;-72
2022/03/31 09:03:02;;;;;;;;;;;;;;;5.60;55.97;99485.02;89652;1276;95122;-73
2022/03/31 09:05:11;;;;;;;;;;;;;;;5.60;55.05;99476.42;89657;1276;77881;-73
2022/03/31 09:07:18;;;;;;;;;;;;;;;5.48;54.99;99485.90;89663;1276;81374;-74
2022/03/31 09:09:25;;;;;;;;;;;;;;;5.39;53.99;99495.70;89660;1276;99177;-69
2022/03/31 09:11:33;;;;;;;;;;;;;;;5.24;54.34;99494.10;89673;1276;88813;-70
2022/03/31 09:13:40;;;;;;;;;;;;;;;5.24;54.95;99484.89;89667;1276;95459;-69
2022/03/31 09:15:52;;;;;;;;;;;;;;;5.37;54.61;99486.68;89681;1276;76935;-70
2022/03/31 09:18:01;;;;;;;;;;;;;;;5.27;54.26;99490.12;89658;1276;82619;-68
2022/03/31 09:20:09;;;;;;;;;;;;;;;5.28;54.01;99493.60;89678;1276;98393;-71
2022/03/31 09:22:16;;;;;;;;;;;;;;;5.23;53.86;99498.66;89658;1276;88553;-70
2022/03/31 09:24:26;;;;;;;;;;;;;;;5.16;53.68;99486.75;89651;1276;95245;-70
2022/03/31 09:26:33;;;;;;;;;;;;;;;5.30;53.99;99482.81;89663;1276;77262;-71
2022/03/31 09:28:41;;;;;;;;;;;;;;;5.35;53.16;99486.66;89673;1276;82896;-69
2022/03/31 09:30:51;;;;;;;;;;;;;;;5.33;53.29;99485.50;89677;1276;98362;-70
2022/03/31 09:33:02;;;;;;;;;;;;;;;5.39;53.56;99489.02;89669;1276;87693;-72
2022/03/31 09:35:10;;;;;;;;;;;;;;;5.51;53.61;99488.76;89653;1276;92680;-70
2022/03/31 09:37:17;;;;;;;;;;;;;;;5.52;53.01;99490.28;89681;1276;77001;-71
2022/03/31 09:39:25;;;;;;;;;;;;;;;5.46;53.20;99485.94;89678;1276;80867;-71
2022/03/31 09:41:34;;;;;;;;;;;;;;;5.61;53.51;99487.73;89672;1276;99415;-72
2022/03/31 09:43:42;;;;;;;;;;;;;;;5.64;52.69;99488.62;89681;1276;89147;-73
2022/03/31 09:45:50;;;;;;;;;;;;;;;5.72;52.76;99493.44;89677;1276;94518;-72
2022/03/31 09:47:59;;;;;;;;;;;;;;;5.66;52.11;99491.65;89608;1277;77267;-72
2022/03/31 09:50:08;;;;;;;;;;;;;;;5.61;51.96;99499.69;89666;1276;81845;-74
2022/03/31 09:52:16;;;;;;;;;;;;;;;5.62;51.85;99499.45;89680;1276;97809;-75
2022/03/31 09:54:25;;;;;;;;;;;;;;;5.70;52.34;99494.06;89669;1276;88781;-73
2022/03/31 09:56:38;;;;;;;;;;;;;;;5.88;52.16;99495.11;89658;1276;95520;-71
2022/03/31 09:58:47;;;;;;;;;;;;;;;5.83;51.77;99492.23;89662;1275;77690;-73
2022/03/31 10:00:55;;;;;;;;;;;;;;;5.83;51.71;99489.89;89686;1276;82526;-71
2022/03/31 10:03:04;;;;;;;;;;;;;;;5.78;51.67;99490.50;89648;1276;97617;-72
2022/03/31 10:05:13;;;;;;;;;;;;;;;5.83;51.61;99495.27;89683;1276;87258;-71
2022/03/31 10:07:22;;;;;;;;;;;;;;;5.84;51.32;99491.60;89673;1276;93126;-71
2022/03/31 10:09:31;;;;;;;;;;;;;;;5.90;51.57;99485.53;89658;1276;78306;-71
2022/03/31 10:11:41;;;;;;;;;;;;;;;6.02;51.44;99481.84;89699;1276;82615;-71
2022/03/31 10:13:55;;;;;;;;;;;;;;;6.07;50.93;99483.57;89707;1276;99600;-71
2022/03/31 10:16:05;;;;;;;;;;;;;;;6.00;50.81;99488.41;89685;1275;88674;-69
2022/03/31 10:18:15;;;;;;;;;;;;;;;5.92;50.68;99484.44;89701;1276;94635;-73
2022/03/31 10:20:22;;;;;;;;;;;;;;;5.95;50.69;99481.52;89696;1276;76915;-70
2022/03/31 10:24:57;;;;;;;;;;;;;;;6.06;50.39;99474.85;89702;1276;97457;-72
2022/03/31 10:27:04;;;;;;;;;;;;;;;6.20;50.76;99469.98;89682;1276;87760;-71
2022/03/31 10:29:16;;;;;;;;;;;;;;;6.35;50.31;99471.29;89689;1276;95345;-71
2022/03/31 10:31:34;;;;;;;;;;;;;;;6.46;50.18;99468.39;89690;1276;80070;-71
2022/03/31 10:33:51;;;;;;;;;;;;;;;6.37;49.42;99473.88;89687;1275;80439;-72
2022/03/31 10:36:12;;;;;;;;;;;;;;;6.35;49.40;99471.63;89678;1276;99286;-71
2022/03/31 10:38:20;;;;;;;;;;;;;;;6.36;49.11;99475.26;89692;1276;88815;-71
2022/03/31 10:40:38;;;;;;;;;;;;;;;6.34;48.87;99468.20;89665;1276;95841;-71
2022/03/31 10:42:54;;;;;;;;;;;;;;;6.48;49.22;99466.80;89692;1276;79348;-71
2022/03/31 10:45:18;;;;;;;;;;;;;;;6.62;49.03;99467.39;89664;1275;82476;-69
2022/03/31 10:47:34;;;;;;;;;;;;;;;6.64;48.60;99468.66;89685;1276;98426;-72
2022/03/31 10:49:54;;;;;;;;;;;;;;;6.71;48.17;99473.52;89691;1276;87133;-71
2022/03/31 10:52:17;;;;;;;;;;;;;;;6.66;47.96;99475.55;89662;1276;94567;-71
2022/03/31 10:54:29;;;;;;;;;;;;;;;6.62;48.10;99480.53;89648;1276;77811;-72
2022/03/31 10:56:36;;;;;;;;;;;;;;;6.65;48.55;99471.94;89694;1276;82021;-71
2022/03/31 10:58:46;;;;;;;;;;;;;;;6.75;48.46;99469.83;89678;1276;98676;-71
2022/03/31 11:00:57;;;;;;;;;;;;;;;6.85;48.08;99471.78;89678;1276;87774;-71
2022/03/31 11:03:05;;;;;;;;;;;;;;;6.80;47.42;99470.12;89619;1276;95280;-72
2022/03/31 11:05:12;;;;;;;;;;;;;;;6.79;47.22;99473.09;89680;1276;77396;-71
2022/03/31 11:07:22;;;;;;;;;;;;;;;6.78;47.50;99467.64;89666;1276;80233;-71
2022/03/31 11:09:31;;;;;;;;;;;;;;;6.93;47.87;99469.73;89661;1276;97434;-73
2022/03/31 11:11:38;;;;;;;;;;;;;;;7.02;47.73;99462.03;89689;1276;88933;-71
2022/03/31 11:13:45;;;;;;;;;;;;;;;7.04;47.36;99467.39;89655;1276;93926;-71
2022/03/31 11:15:57;;;;;;;;;;;;;;;6.96;47.40;99460.30;89666;1276;79937;-71
2022/03/31 11:18:04;;;;;;;;;;;;;;;7.05;47.43;99461.27;89685;1275;82357;-71
2022/03/31 11:20:22;;;;;;;;;;;;;;;7.02;47.33;99468.34;89673;1276;98539;-73
2022/03/31 11:22:31;;;;;;;;;;;;;;;7.04;47.23;99464.73;89686;1275;88046;-71
2022/03/31 11:24:39;;;;;;;;;;;;;;;7.07;46.74;99463.11;89656;1276;93008;-70